createdAt,value
2017-11-20T00:00:12.732Z,3.67
2017-11-20T00:02:40.982Z,3.20
2017-11-20T00:05:10.021Z,2.83
2017-11-20T00:07:38.283Z,3.30
2017-11-20T00:10:06.540Z,3.00
2017-11-20T00:12:35.566Z,2.80
2017-11-20T00:15:03.826Z,3.80
2017-11-20T00:17:32.118Z,3.40
2017-11-20T00:20:00.793Z,3.00
2017-11-20T00:22:29.184Z,3.20
2017-11-20T00:24:57.465Z,2.97
2017-11-20T00:27:25.702Z,3.50
2017-11-20T00:29:54.766Z,2.73
2017-11-20T00:32:23.032Z,3.37
2017-11-20T00:34:51.295Z,3.33
2017-11-20T00:37:19.551Z,3.10
2017-11-20T00:39:47.852Z,3.17
2017-11-20T00:42:16.412Z,2.90
2017-11-20T00:44:45.425Z,2.53
2017-11-20T00:47:13.676Z,2.97
2017-11-20T00:49:42.713Z,4.10
2017-11-20T00:52:10.965Z,2.90
2017-11-20T00:54:39.238Z,3.80
2017-11-20T00:57:07.490Z,3.13
2017-11-20T00:59:35.831Z,3.30
2017-11-20T01:02:04.586Z,3.50
2017-11-20T01:04:32.883Z,3.30
2017-11-20T01:07:01.564Z,3.60
2017-11-20T01:09:29.857Z,3.40
2017-11-20T01:11:58.140Z,3.67
2017-11-20T01:14:26.823Z,4.03
2017-11-20T01:16:55.092Z,3.40
2017-11-20T01:19:23.375Z,3.80
2017-11-20T01:21:51.639Z,4.30
2017-11-20T01:24:19.911Z,3.67
2017-11-20T01:26:48.710Z,3.40
2017-11-20T01:29:16.968Z,3.50
2017-11-20T01:31:45.229Z,3.97
2017-11-20T01:34:14.694Z,3.20
2017-11-20T01:36:43.349Z,3.57
2017-11-20T01:39:12.042Z,3.33
2017-11-20T01:41:40.289Z,3.63
2017-11-20T01:44:09.310Z,3.60
2017-11-20T01:46:37.570Z,3.60
2017-11-20T01:49:05.830Z,4.20
2017-11-20T01:51:34.615Z,3.70
2017-11-20T01:54:02.865Z,3.40
2017-11-20T01:56:31.106Z,3.77
2017-11-20T01:58:59.371Z,3.73
2017-11-20T02:01:28.110Z,3.47
2017-11-20T02:03:56.772Z,4.20
2017-11-20T02:06:25.067Z,4.07
2017-11-20T02:08:53.333Z,3.77
2017-11-20T02:11:22.328Z,4.80
2017-11-20T02:13:57.084Z,4.30
2017-11-20T02:16:27.153Z,3.70
2017-11-20T02:18:58.586Z,3.90
2017-11-20T02:21:29.034Z,4.03
2017-11-20T02:24:00.814Z,4.07
2017-11-20T02:26:29.161Z,3.87
2017-11-20T02:28:59.392Z,4.63
2017-11-20T02:31:28.947Z,4.47
2017-11-20T02:33:57.385Z,3.53
2017-11-20T02:36:26.704Z,3.33
2017-11-20T02:38:55.060Z,4.67
2017-11-20T02:41:23.484Z,3.50
2017-11-20T02:43:52.151Z,3.50
2017-11-20T02:46:20.504Z,4.90
2017-11-20T02:48:48.894Z,4.00
2017-11-20T02:51:17.294Z,3.27
2017-11-20T02:53:45.643Z,3.60
2017-11-20T02:56:14.974Z,4.03
2017-11-20T02:58:46.763Z,3.67
2017-11-20T03:01:15.124Z,3.67
2017-11-20T03:03:45.320Z,3.23
2017-11-20T03:06:13.678Z,3.50
2017-11-20T03:08:42.374Z,3.20
2017-11-20T03:11:14.164Z,3.53
2017-11-20T03:13:42.540Z,3.90
2017-11-20T03:16:10.950Z,3.37
2017-11-20T03:18:42.796Z,3.90
2017-11-20T03:21:13.196Z,3.80
2017-11-20T03:23:41.600Z,3.47
2017-11-20T03:26:11.790Z,3.40
2017-11-20T03:28:40.165Z,3.43
2017-11-20T03:31:08.589Z,4.13
2017-11-20T03:33:36.932Z,3.33
2017-11-20T03:36:05.303Z,3.40
2017-11-20T03:38:33.758Z,3.87
2017-11-20T03:41:03.055Z,3.10
2017-11-20T03:43:32.383Z,3.63
2017-11-20T03:46:02.841Z,3.57
2017-11-20T03:48:35.210Z,4.10
2017-11-20T03:51:03.582Z,3.90
2017-11-20T03:53:31.971Z,3.27
2017-11-20T03:56:00.362Z,4.17
2017-11-20T03:58:28.723Z,5.20
2017-11-20T04:00:57.098Z,3.43
2017-11-20T04:03:25.519Z,3.30
2017-11-20T04:05:54.284Z,3.93
2017-11-20T04:08:22.546Z,3.57
2017-11-20T04:10:50.910Z,4.40
2017-11-20T04:13:19.330Z,5.37
2017-11-20T04:15:47.989Z,4.30
2017-11-20T04:18:16.396Z,5.87
2017-11-20T04:20:46.599Z,6.30
2017-11-20T04:23:14.998Z,5.40
2017-11-20T04:25:43.383Z,6.07
2017-11-20T04:28:11.720Z,5.67
2017-11-20T04:30:40.191Z,6.10
2017-11-20T04:33:09.430Z,6.03
2017-11-20T04:35:37.826Z,6.47
2017-11-20T04:38:08.022Z,5.57
2017-11-20T04:40:36.412Z,6.33
2017-11-20T04:43:05.181Z,6.20
2017-11-20T04:45:35.625Z,5.27
2017-11-20T04:48:07.396Z,6.93
2017-11-20T04:50:38.906Z,6.80
2017-11-20T04:53:08.141Z,5.80
2017-11-20T04:55:39.954Z,6.13
2017-11-20T04:58:10.148Z,6.97
2017-11-20T05:00:41.864Z,5.77
2017-11-20T05:03:10.277Z,7.00
2017-11-20T05:05:39.916Z,6.53
2017-11-20T05:08:08.235Z,6.27
2017-11-20T05:10:38.499Z,6.57
2017-11-20T05:13:06.869Z,6.97
2017-11-20T05:15:35.133Z,7.10
2017-11-20T05:18:03.619Z,7.43
2017-11-20T05:20:31.992Z,8.33
2017-11-20T05:23:00.363Z,7.50
2017-11-20T05:25:28.743Z,8.27
2017-11-20T05:27:57.130Z,8.70
2017-11-20T05:30:29.485Z,10.90
2017-11-20T05:33:01.596Z,7.13
2017-11-20T05:35:29.963Z,8.70
2017-11-20T05:37:58.314Z,7.70
2017-11-20T05:40:26.713Z,9.70
2017-11-20T05:42:55.166Z,7.40
2017-11-20T05:45:24.396Z,9.17
2017-11-20T05:47:52.852Z,11.03
2017-11-20T05:50:21.168Z,10.20
2017-11-20T05:52:49.533Z,10.10
2017-11-20T05:55:17.962Z,10.13
2017-11-20T05:57:46.320Z,9.73
2017-11-20T06:00:14.676Z,9.67
2017-11-20T06:02:43.079Z,9.63
2017-11-20T06:05:11.424Z,9.67
2017-11-20T06:07:39.828Z,9.33
2017-11-20T06:10:08.183Z,9.30
2017-11-20T06:12:37.520Z,10.00
2017-11-20T06:15:05.892Z,9.03
2017-11-20T06:17:34.275Z,10.23
2017-11-20T06:20:03.053Z,10.47
2017-11-20T06:22:32.223Z,9.77
2017-11-20T06:25:00.652Z,9.63
2017-11-20T06:27:29.013Z,11.50
2017-11-20T06:29:57.381Z,9.70
2017-11-20T06:32:25.815Z,11.00
2017-11-20T06:34:54.134Z,10.90
2017-11-20T06:37:22.634Z,11.30
2017-11-20T06:39:50.944Z,10.63
2017-11-20T06:42:19.283Z,11.40
2017-11-20T06:44:47.672Z,10.37
2017-11-20T06:47:16.042Z,11.97
2017-11-20T06:49:44.414Z,10.53
2017-11-20T06:52:12.827Z,10.20
2017-11-20T06:54:41.192Z,10.20
2017-11-20T06:57:09.566Z,9.60
2017-11-20T06:59:38.007Z,9.30
2017-11-20T07:02:07.350Z,10.13
2017-11-20T07:04:35.673Z,9.87
2017-11-20T07:07:04.024Z,9.27
2017-11-20T07:09:32.413Z,10.50
2017-11-20T07:12:00.763Z,9.33
2017-11-20T07:14:29.149Z,10.00
2017-11-20T07:16:57.537Z,9.57
2017-11-20T07:19:25.925Z,11.20
2017-11-20T07:21:54.698Z,10.20
2017-11-20T07:24:23.912Z,9.87
2017-11-20T07:27:02.293Z,9.23
2017-11-20T07:29:48.095Z,9.97
2017-11-20T07:32:16.668Z,11.20
2017-11-20T07:34:56.844Z,11.27
2017-11-20T07:37:43.765Z,9.47
2017-11-20T07:40:18.200Z,9.37
2017-11-20T07:42:46.561Z,10.07
2017-11-20T07:45:14.828Z,8.63
2017-11-20T07:47:43.199Z,9.07
2017-11-20T07:50:11.606Z,8.47
2017-11-20T07:52:39.974Z,9.60
2017-11-20T07:55:08.354Z,9.37
2017-11-20T07:57:37.055Z,8.73
2017-11-20T08:00:05.509Z,10.50
2017-11-20T08:02:33.799Z,10.50
2017-11-20T08:05:02.182Z,10.00
2017-11-20T08:07:30.598Z,9.83
2017-11-20T08:09:58.944Z,9.67
2017-11-20T08:12:27.325Z,8.53
2017-11-20T08:14:55.707Z,9.07
2017-11-20T08:17:24.063Z,9.90
2017-11-20T08:19:52.841Z,9.70
2017-11-20T08:22:22.149Z,9.80
2017-11-20T08:24:50.446Z,8.80
2017-11-20T08:27:18.848Z,9.80
2017-11-20T08:29:47.260Z,9.97
2017-11-20T08:32:15.991Z,10.53
2017-11-20T08:34:44.294Z,9.47
2017-11-20T08:37:12.657Z,9.70
2017-11-20T08:39:41.049Z,9.33
2017-11-20T08:42:09.429Z,9.30
2017-11-20T08:44:37.851Z,10.23
2017-11-20T08:47:06.172Z,9.27
2017-11-20T08:49:34.557Z,9.40
2017-11-20T08:52:02.931Z,9.90
2017-11-20T08:54:31.340Z,10.20
2017-11-20T08:56:59.724Z,9.20
2017-11-20T08:59:28.077Z,10.17
2017-11-20T09:01:56.445Z,9.60
2017-11-20T09:04:24.857Z,10.20
2017-11-20T09:06:53.237Z,10.30
2017-11-20T09:09:21.994Z,9.67
2017-11-20T09:11:50.311Z,11.17
2017-11-20T09:14:18.707Z,10.23
2017-11-20T09:16:47.076Z,10.23
2017-11-20T09:19:16.368Z,8.60
2017-11-20T09:21:44.773Z,9.23
2017-11-20T09:24:13.625Z,8.50
2017-11-20T09:26:42.115Z,8.80
2017-11-20T09:29:10.486Z,8.77
2017-11-20T09:31:38.871Z,8.90
2017-11-20T09:34:07.384Z,9.73
2017-11-20T09:36:35.743Z,7.80
2017-11-20T09:39:04.091Z,8.63
2017-11-20T09:41:32.441Z,7.90
2017-11-20T09:44:02.657Z,7.57
2017-11-20T09:46:33.276Z,8.20
2017-11-20T09:49:01.591Z,7.53
2017-11-20T09:51:30.822Z,8.30
2017-11-20T09:53:59.196Z,7.97
2017-11-20T09:56:27.724Z,7.60
2017-11-20T09:58:56.026Z,7.70
2017-11-20T10:01:25.460Z,6.47
2017-11-20T10:03:53.891Z,7.90
2017-11-20T10:06:22.338Z,5.43
2017-11-20T10:08:50.755Z,6.70
2017-11-20T10:11:19.173Z,7.40
2017-11-20T10:13:47.500Z,5.80
2017-11-20T10:16:16.157Z,6.13
2017-11-20T10:18:44.598Z,6.50
2017-11-20T10:21:13.820Z,6.03
2017-11-20T10:23:42.256Z,6.53
2017-11-20T10:26:10.646Z,5.60
2017-11-20T10:28:38.978Z,5.20
2017-11-20T10:31:07.414Z,4.63
2017-11-20T10:33:36.690Z,5.60
2017-11-20T10:36:08.852Z,5.70
2017-11-20T10:38:37.123Z,4.70
2017-11-20T10:41:05.465Z,5.17
2017-11-20T10:43:33.888Z,5.10
2017-11-20T10:46:02.231Z,3.97
2017-11-20T10:48:30.621Z,5.67
2017-11-20T10:50:59.007Z,4.67
2017-11-20T10:53:27.470Z,4.20
2017-11-20T10:55:55.835Z,5.27
2017-11-20T10:58:24.184Z,5.50
2017-11-20T11:00:52.532Z,5.10
2017-11-20T11:03:20.920Z,4.97
2017-11-20T11:05:49.293Z,5.33
2017-11-20T11:08:17.693Z,5.07
2017-11-20T11:10:46.085Z,5.10
2017-11-20T11:13:14.436Z,4.90
2017-11-20T11:15:44.962Z,4.70
2017-11-20T11:18:16.725Z,4.53
2017-11-20T11:20:45.088Z,5.40
2017-11-20T11:23:13.464Z,5.50
2017-11-20T11:25:42.019Z,5.60
2017-11-20T11:28:11.186Z,5.23
2017-11-20T11:30:39.946Z,5.10
2017-11-20T11:33:08.265Z,5.43
2017-11-20T11:35:36.612Z,5.13
2017-11-20T11:38:04.998Z,5.13
2017-11-20T11:40:33.390Z,4.50
2017-11-20T11:43:02.039Z,4.70
2017-11-20T11:45:30.438Z,4.50
2017-11-20T11:47:58.787Z,4.80
2017-11-20T11:50:27.227Z,4.80
2017-11-20T11:52:55.579Z,4.00
2017-11-20T11:55:24.122Z,4.97
2017-11-20T11:57:52.412Z,4.87
2017-11-20T12:00:20.715Z,4.47
2017-11-20T12:02:49.139Z,4.47
2017-11-20T12:05:17.626Z,4.73
2017-11-20T12:07:45.936Z,5.97
2017-11-20T12:10:14.216Z,5.23
2017-11-20T12:12:42.625Z,5.10
2017-11-20T12:15:10.991Z,5.43
2017-11-20T12:17:39.401Z,5.10
2017-11-20T12:20:08.171Z,5.50
2017-11-20T12:22:36.424Z,5.20
2017-11-20T12:25:04.811Z,5.70
2017-11-20T12:27:33.227Z,6.43
2017-11-20T12:30:01.644Z,5.87
2017-11-20T12:32:30.042Z,5.93
2017-11-20T12:34:58.343Z,5.47
2017-11-20T12:37:26.744Z,5.17
2017-11-20T12:39:55.093Z,5.80
2017-11-20T12:42:24.444Z,6.20
2017-11-20T12:44:52.797Z,6.20
2017-11-20T12:47:21.163Z,5.83
2017-11-20T12:49:49.636Z,6.50
2017-11-20T12:52:18.182Z,7.80
2017-11-20T12:54:46.610Z,6.10
2017-11-20T12:57:14.994Z,6.57
2017-11-20T12:59:43.341Z,12.77
2017-11-20T13:02:11.729Z,5.70
2017-11-20T13:04:40.099Z,7.10
2017-11-20T13:07:08.490Z,6.40
2017-11-20T13:09:37.844Z,6.17
2017-11-20T13:12:06.182Z,5.03
2017-11-20T13:14:39.214Z,5.20
2017-11-20T13:17:07.565Z,5.70
2017-11-20T13:19:35.983Z,6.10
2017-11-20T13:22:05.233Z,6.33
2017-11-20T13:24:33.595Z,6.60
2017-11-20T13:27:03.832Z,5.70
2017-11-20T13:29:32.241Z,5.83
2017-11-20T13:32:01.151Z,6.70
2017-11-20T13:34:29.592Z,6.97
2017-11-20T13:37:01.977Z,6.03
2017-11-20T13:39:30.436Z,6.77
2017-11-20T13:41:59.188Z,6.27
2017-11-20T13:44:28.652Z,7.23
2017-11-20T13:47:00.404Z,7.07
2017-11-20T13:49:28.786Z,7.10
2017-11-20T13:51:57.178Z,7.67
2017-11-20T13:54:25.531Z,6.93
2017-11-20T13:56:58.271Z,7.37
2017-11-20T13:59:26.594Z,7.20
2017-11-20T14:01:58.052Z,7.23
2017-11-20T14:04:29.799Z,6.40
2017-11-20T14:06:58.453Z,9.13
2017-11-20T14:09:27.595Z,8.90
2017-11-20T14:11:58.046Z,7.37
2017-11-20T14:14:31.615Z,9.70
2017-11-20T14:17:00.023Z,7.07
2017-11-20T14:19:32.086Z,7.90
2017-11-20T14:22:00.474Z,7.50
2017-11-20T14:24:28.825Z,8.33
2017-11-20T14:26:57.207Z,7.33
2017-11-20T14:29:25.593Z,7.67
2017-11-20T14:31:53.960Z,8.90
2017-11-20T14:34:23.456Z,7.63
2017-11-20T14:36:53.795Z,8.00
2017-11-20T14:39:22.321Z,7.90
2017-11-20T14:41:50.676Z,7.07
2017-11-20T14:44:19.072Z,7.60
2017-11-20T14:46:53.279Z,7.97
2017-11-20T14:49:21.663Z,8.27
2017-11-20T14:51:54.336Z,7.90
2017-11-20T14:54:25.476Z,7.83
2017-11-20T14:56:57.142Z,6.97
2017-11-20T14:59:25.511Z,8.67
2017-11-20T15:01:53.892Z,8.20
2017-11-20T15:04:22.493Z,7.37
2017-11-20T15:06:51.182Z,7.60
2017-11-20T15:09:19.770Z,7.33
2017-11-20T15:11:48.031Z,8.07
2017-11-20T15:14:17.376Z,7.73
2017-11-20T15:16:47.342Z,7.87
2017-11-20T15:19:15.610Z,9.03
2017-11-20T15:21:44.012Z,8.30
2017-11-20T15:24:13.308Z,8.40
2017-11-20T15:26:42.642Z,7.20
2017-11-20T15:29:11.030Z,6.60
2017-11-20T15:31:39.381Z,7.00
2017-11-20T15:34:07.907Z,7.20
2017-11-20T15:36:37.035Z,7.40
2017-11-20T15:39:05.417Z,7.07
2017-11-20T15:41:35.664Z,6.73
2017-11-20T15:44:04.145Z,15.80
2017-11-20T15:46:32.430Z,6.63
2017-11-20T15:49:01.155Z,7.20
2017-11-20T15:51:29.474Z,6.63
2017-11-20T15:53:58.151Z,7.13
2017-11-20T15:56:26.602Z,8.13
2017-11-20T15:58:55.824Z,6.27
2017-11-20T16:01:24.233Z,5.87
2017-11-20T16:03:52.626Z,5.93
2017-11-20T16:06:22.193Z,6.50
2017-11-20T16:08:50.580Z,6.70
2017-11-20T16:11:19.007Z,6.60
2017-11-20T16:13:47.358Z,6.40
2017-11-20T16:16:15.733Z,5.77
2017-11-20T16:18:45.962Z,6.63
2017-11-20T16:21:14.327Z,5.80
2017-11-20T16:23:42.693Z,6.13
2017-11-20T16:26:11.112Z,6.87
2017-11-20T16:28:39.465Z,5.60
2017-11-20T16:31:08.284Z,6.50
2017-11-20T16:33:36.559Z,6.00
2017-11-20T16:36:04.928Z,4.67
2017-11-20T16:38:33.354Z,5.80
2017-11-20T16:41:01.685Z,5.03
2017-11-20T16:43:31.024Z,5.80
2017-11-20T16:45:59.391Z,4.53
2017-11-20T16:48:28.690Z,5.13
2017-11-20T16:50:57.040Z,4.13
2017-11-20T16:53:25.404Z,4.40
2017-11-20T16:55:53.863Z,4.70
2017-11-20T16:58:40.206Z,4.80
2017-11-20T17:01:10.556Z,4.43
2017-11-20T17:03:38.911Z,4.03
2017-11-20T17:06:07.273Z,4.00
2017-11-20T17:08:35.687Z,4.33
2017-11-20T17:11:04.184Z,4.70
2017-11-20T17:13:32.471Z,3.70
2017-11-20T17:16:01.737Z,3.47
2017-11-20T17:18:30.105Z,3.93
2017-11-20T17:20:59.435Z,3.90
2017-11-20T17:23:27.778Z,4.43
2017-11-20T17:25:56.174Z,3.30
2017-11-20T17:28:24.572Z,3.73
2017-11-20T17:30:52.939Z,3.90
2017-11-20T17:33:21.329Z,3.13
2017-11-20T17:35:50.308Z,3.17
2017-11-20T17:38:18.735Z,3.17
2017-11-20T17:40:48.043Z,3.13
2017-11-20T17:43:16.439Z,2.90
2017-11-20T17:45:45.695Z,3.80
2017-11-20T17:48:14.059Z,3.00
2017-11-20T17:50:43.369Z,3.23
2017-11-20T17:53:11.778Z,3.37
2017-11-20T17:55:40.111Z,3.30
2017-11-20T17:58:08.543Z,3.00
2017-11-20T18:00:36.886Z,3.80
2017-11-20T18:03:06.169Z,2.63
2017-11-20T18:05:34.566Z,2.60
2017-11-20T18:08:02.932Z,2.70
2017-11-20T18:10:32.259Z,2.20
2017-11-20T18:13:00.628Z,2.67
2017-11-20T18:15:28.999Z,2.67
2017-11-20T18:17:57.395Z,3.00
2017-11-20T18:20:25.765Z,2.50
2017-11-20T18:22:54.168Z,2.80
2017-11-20T18:25:22.500Z,2.83
2017-11-20T18:27:51.027Z,2.80
2017-11-20T18:30:20.227Z,3.10
2017-11-20T18:32:48.657Z,3.53
2017-11-20T18:35:18.290Z,3.20
2017-11-20T18:37:46.866Z,3.50
2017-11-20T18:40:16.265Z,4.10
2017-11-20T18:42:44.670Z,4.10
2017-11-20T18:45:12.955Z,4.17
2017-11-20T18:47:41.339Z,4.00
2017-11-20T18:50:09.747Z,4.27
2017-11-20T18:52:38.214Z,4.63
2017-11-20T18:55:06.469Z,4.17
2017-11-20T18:57:34.873Z,4.90
2017-11-20T19:00:21.558Z,4.70
2017-11-20T19:03:08.681Z,4.50
2017-11-20T19:05:54.772Z,4.53
2017-11-20T19:11:36.701Z,5.40
2017-11-20T19:14:05.929Z,5.47
2017-11-20T19:16:35.184Z,7.07
2017-11-20T19:19:03.585Z,6.67
2017-11-20T19:21:31.951Z,6.30
2017-11-20T19:24:00.397Z,6.20
2017-11-20T19:26:29.620Z,6.60
2017-11-20T19:28:58.038Z,9.27
2017-11-20T19:31:28.342Z,6.40
2017-11-20T19:33:56.609Z,6.10
2017-11-20T19:36:25.037Z,6.23
2017-11-20T19:38:54.428Z,7.73
2017-11-20T19:41:22.714Z,6.27
2017-11-20T19:43:51.031Z,6.10
2017-11-20T19:46:19.441Z,5.73
2017-11-20T19:48:49.097Z,6.30
2017-11-20T19:51:19.267Z,6.77
2017-11-20T19:53:47.808Z,6.20
2017-11-20T19:56:17.277Z,5.27
2017-11-20T19:58:47.092Z,5.50
2017-11-20T20:01:15.677Z,6.67
2017-11-20T20:03:43.971Z,4.63
2017-11-20T20:06:12.286Z,5.07
2017-11-20T20:08:43.799Z,4.60
2017-11-20T20:11:15.515Z,4.40
2017-11-20T20:13:48.521Z,4.00
2017-11-20T20:19:21.543Z,3.63
2017-11-20T20:21:49.902Z,3.70
2017-11-20T20:24:18.345Z,3.53
2017-11-20T20:26:47.631Z,2.90
2017-11-20T20:29:15.956Z,2.87
2017-11-20T20:31:45.272Z,2.80
2017-11-20T20:34:13.643Z,3.13
2017-11-20T20:36:42.017Z,2.83
2017-11-20T20:39:10.483Z,2.43
2017-11-20T20:41:39.726Z,2.30
2017-11-20T20:44:08.123Z,2.57
2017-11-20T20:46:39.885Z,2.30
2017-11-20T20:49:15.976Z,1.60
2017-11-20T20:51:45.241Z,1.63
2017-11-20T20:54:13.598Z,2.20
2017-11-20T20:56:41.972Z,42.50
2017-11-20T20:59:10.271Z,3.00
2017-11-20T21:01:38.519Z,2.10
2017-11-20T21:04:06.854Z,2.07
2017-11-20T21:06:41.225Z,2.10
2017-11-20T21:09:09.496Z,1.90
2017-11-20T21:11:43.127Z,2.10
2017-11-20T21:14:11.414Z,1.57
2017-11-20T21:16:39.686Z,1.97
2017-11-20T21:19:08.855Z,2.10
2017-11-20T21:21:37.190Z,1.70
2017-11-20T21:24:05.502Z,2.57
2017-11-20T21:26:33.762Z,1.50
2017-11-20T21:29:02.770Z,1.87
2017-11-20T21:31:31.051Z,1.97
2017-11-20T21:33:59.342Z,1.70
2017-11-20T21:36:27.589Z,2.00
2017-11-20T21:38:56.644Z,1.73
2017-11-20T21:41:25.655Z,7.23
2017-11-20T21:43:53.945Z,1.90
2017-11-20T21:46:23.389Z,8.60
2017-11-20T21:48:51.664Z,2.23
2017-11-20T21:51:19.927Z,1.53
2017-11-20T21:53:49.067Z,1.83
2017-11-20T21:56:18.137Z,1.70
2017-11-20T21:58:46.840Z,1.60
2017-11-20T22:01:15.097Z,1.70
2017-11-20T22:03:43.367Z,1.60
2017-11-20T22:06:11.631Z,1.83
2017-11-20T22:08:39.900Z,1.50
2017-11-20T22:11:08.149Z,1.57
2017-11-20T22:13:36.833Z,1.63
2017-11-20T22:16:05.080Z,1.53
2017-11-20T22:18:33.330Z,1.60
2017-11-20T22:21:01.595Z,1.23
2017-11-20T22:23:29.846Z,1.37
2017-11-20T22:25:58.090Z,1.40
2017-11-20T22:28:26.772Z,1.20
2017-11-20T22:30:55.007Z,1.10
2017-11-20T22:33:23.281Z,1.20
2017-11-20T22:35:51.530Z,1.17
2017-11-20T22:38:20.542Z,1.13
2017-11-20T22:40:48.803Z,0.93
2017-11-20T22:43:17.058Z,1.57
2017-11-20T22:45:45.329Z,1.00
2017-11-20T22:48:13.585Z,1.30
2017-11-20T22:50:42.621Z,1.20
2017-11-20T22:53:10.881Z,1.23
2017-11-20T22:55:39.131Z,0.90
2017-11-20T22:58:07.411Z,1.10
2017-11-20T23:00:36.422Z,1.33
2017-11-20T23:03:04.681Z,1.00
2017-11-20T23:05:32.951Z,1.13
2017-11-20T23:08:01.204Z,1.40
2017-11-20T23:10:29.457Z,1.30
2017-11-20T23:12:57.714Z,1.27
2017-11-20T23:15:25.976Z,1.30
2017-11-20T23:17:54.561Z,1.13
2017-11-20T23:20:22.801Z,1.10
2017-11-20T23:22:51.440Z,1.10
2017-11-20T23:25:20.804Z,1.20
2017-11-20T23:27:49.432Z,1.17
2017-11-20T23:30:17.707Z,1.10
2017-11-20T23:32:45.961Z,1.00
2017-11-20T23:35:14.982Z,1.10
2017-11-20T23:37:43.262Z,1.00
2017-11-20T23:40:11.632Z,1.27
2017-11-20T23:42:39.903Z,1.10
2017-11-20T23:45:08.704Z,1.13
2017-11-20T23:47:36.972Z,1.00
2017-11-20T23:50:05.239Z,0.90
2017-11-20T23:52:33.463Z,1.00
2017-11-20T23:55:01.718Z,0.93
2017-11-20T23:57:29.983Z,1.00
2017-11-20T23:59:58.257Z,1.17
